Time;durP1;ratioP1;P1;durP2;ratioP2;P2;SDS_P1;SDS_P2;PMS_P1;PMS_P2;Temp;Humidity;BMP_temperature;BMP_pressure;BME280_temperature;BME280_humidity;BME280_pressure;Samples;Min_cycle;Max_cycle;Signal;HPM_P1;HPM_P2
2021/06/14 00:00:58;;;;;;;4.93;1.80;;;;;;;26.11;36.45;100123.59;4483082;32;34641;-70
2021/06/14 00:03:26;;;;;;;6.07;2.15;;;;;;;26.11;36.57;100112.66;4484165;32;34062;-71
2021/06/14 00:05:53;;;;;;;4.93;1.65;;;;;;;26.11;36.54;100109.06;4483462;32;34049;-69
2021/06/14 00:08:21;;;;;;;9.40;1.77;;;;;;;26.10;36.51;100102.78;4484109;32;33743;-70
2021/06/14 00:10:50;;;;;;;7.60;1.70;;;;;;;26.10;36.51;100110.16;4483416;32;34437;-70
2021/06/14 00:13:18;;;;;;;5.45;2.62;;;;;;;26.10;36.60;100099.22;4483266;32;34055;-69
2021/06/14 00:15:46;;;;;;;4.60;1.90;;;;;;;26.09;36.47;100098.37;4482135;32;34120;-70
2021/06/14 00:18:16;;;;;;;4.18;1.62;;;;;;;26.07;36.48;100095.06;4482467;32;34307;-71
2021/06/14 00:20:49;;;;;;;6.85;1.92;;;;;;;26.09;36.45;100094.81;4484088;32;33502;-70
2021/06/14 00:23:17;;;;;;;5.85;1.50;;;;;;;26.07;36.42;100100.53;4483746;32;32870;-70
2021/06/14 00:25:45;;;;;;;10.15;2.20;;;;;;;26.09;36.59;100100.28;4483066;32;33858;-71
2021/06/14 00:28:17;;;;;;;5.85;1.83;;;;;;;26.10;36.59;100096.47;4483778;32;33591;-70
2021/06/14 00:30:46;;;;;;;5.60;2.08;;;;;;;26.10;36.60;100099.22;4483393;32;33512;-70
2021/06/14 00:33:15;;;;;;;6.20;2.35;;;;;;;26.09;36.61;100095.66;4481794;32;34751;-70
2021/06/14 00:35:44;;;;;;;5.30;1.80;;;;;;;26.10;36.55;100099.22;4482489;32;34087;-70
2021/06/14 00:38:12;;;;;;;4.43;1.85;;;;;;;26.09;36.45;100092.09;4483939;32;33523;-71
2021/06/14 00:40:40;;;;;;;5.12;1.60;;;;;;;26.11;36.47;100095.41;4483921;32;33835;-70
2021/06/14 00:43:08;;;;;;;6.45;1.85;;;;;;;26.09;36.46;100095.66;4483719;32;33929;-69
2021/06/14 00:45:40;;;;;;;7.68;2.17;;;;;;;26.09;36.47;100098.37;4482408;32;33737;-69
2021/06/14 00:48:08;;;;;;;6.70;1.90;;;;;;;26.08;36.52;100102.19;4483153;32;33585;-70
2021/06/14 00:50:37;;;;;;;4.75;1.85;;;;;;;26.08;36.46;100099.47;4482687;32;33807;-68
2021/06/14 00:53:06;;;;;;;9.05;2.22;;;;;;;26.07;36.48;100099.72;4475409;32;34068;-71
2021/06/14 00:55:34;;;;;;;5.87;1.90;;;;;;;26.07;36.37;100096.97;4482852;32;34028;-71
2021/06/14 00:58:02;;;;;;;6.03;2.28;;;;;;;26.06;36.32;100096.12;4483594;32;34608;-70
2021/06/14 01:00:30;;;;;;;6.50;1.92;;;;;;;26.05;36.30;100104.56;4482037;32;34544;-68
2021/06/14 01:02:58;;;;;;;3.67;1.62;;;;;;;26.03;36.23;100093.88;4483130;32;33499;-70
2021/06/14 01:05:42;;;;;;;4.03;1.87;;;;;;;26.04;36.31;100098.25;4482977;32;34009;-71
2021/06/14 01:08:12;;;;;;;10.25;2.00;;;;;;;26.06;36.31;100106.22;4483807;32;34303;-69
2021/06/14 01:10:41;;;;;;;5.68;1.77;;;;;;;26.05;36.33;100107.31;4481594;32;33724;-69
2021/06/14 01:13:21;;;;;;;8.30;2.10;;;;;;;26.04;36.43;100103.72;4482703;32;34646;-70
2021/06/14 01:16:13;;;;;;;6.87;1.87;;;;;;;26.04;36.44;100098.25;4482837;32;34654;-69
2021/06/14 01:18:49;;;;;;;5.62;1.67;;;;;;;26.03;36.47;100106.72;4477538;32;33514;-70
2021/06/14 01:21:32;;;;;;;4.93;2.05;;;;;;;26.02;36.67;100102.28;4482731;32;34030;-70
2021/06/14 01:24:21;;;;;;;9.15;1.55;;;;;;;26.02;36.42;100094.09;4482532;32;32141;-70
2021/06/14 01:27:32;;;;;;;6.05;2.03;;;;;;;26.00;36.36;100102.53;4482994;32;34124;-70
2021/06/14 01:30:13;;;;;;;3.67;1.92;;;;;;;26.03;36.43;100101.25;4481553;32;33505;-70
2021/06/14 01:32:41;;;;;;;;;;;;;;;25.99;36.53;100097.31;4483666;32;34615;-70
2021/06/14 01:35:10;;;;;;;6.95;1.90;;;;;;;26.08;36.57;100099.47;4480932;32;34986;-71
2021/06/14 01:37:41;;;;;;;5.03;1.62;;;;;;;25.99;36.45;100098.16;4481155;32;33904;-70
2021/06/14 01:40:10;;;;;;;5.12;1.80;;;;;;;25.95;36.51;100091.47;4482638;32;33424;-69
2021/06/14 01:42:38;;;;;;;4.22;1.77;;;;;;;25.95;36.57;100092.31;4482377;32;34423;-70
2021/06/14 01:45:07;;;;;;;4.70;1.67;;;;;;;25.94;36.40;100092.56;4469224;32;35320;-69
2021/06/14 01:47:35;;;;;;;4.53;1.95;;;;;;;25.94;36.52;100092.56;4482542;32;34839;-71
2021/06/14 01:50:04;;;;;;;5.07;1.77;;;;;;;25.94;36.36;100087.09;4482999;32;34180;-69
2021/06/14 01:52:32;;;;;;;8.50;3.35;;;;;;;25.94;36.43;100089.81;4481729;32;32815;-70
2021/06/14 01:55:00;;;;;;;6.43;1.73;;;;;;;25.96;36.40;100090.41;4469099;32;34673;-70
2021/06/14 01:57:30;;;;;;;;;;;;;;;25.96;36.59;100087.66;4481109;32;33832;-71
2021/06/14 02:00:01;;;;;;;6.62;1.60;;;;;;;26.06;36.51;100074.25;4481391;32;31983;-65
2021/06/14 02:02:30;;;;;;;5.13;1.80;;;;;;;25.98;36.49;100079.25;4482744;32;33439;-70
2021/06/14 02:04:58;;;;;;;5.12;1.80;;;;;;;25.97;36.80;100078.41;4482929;32;33799;-70
2021/06/14 02:07:27;;;;;;;4.35;1.92;;;;;;;25.94;36.84;100087.09;4483795;32;32912;-71
2021/06/14 02:09:55;;;;;;;6.35;1.60;;;;;;;25.94;36.56;100087.09;4483934;32;33411;-70
2021/06/14 02:12:24;;;;;;;6.20;2.22;;;;;;;25.93;36.46;100088.16;4480273;32;33892;-70
2021/06/14 02:14:51;;;;;;;4.05;1.60;;;;;;;25.93;36.48;100082.69;4469225;32;33715;-70
2021/06/14 02:17:20;;;;;;;7.87;2.50;;;;;;;25.93;36.50;100085.44;4482799;32;33960;-71
2021/06/14 02:19:49;;;;;;;4.68;1.83;;;;;;;25.93;36.64;100086.25;4483662;32;33469;-69
2021/06/14 02:22:18;;;;;;;8.80;1.98;;;;;;;25.94;36.64;100092.56;4483343;32;33957;-71
2021/06/14 02:24:46;;;;;;;9.68;1.80;;;;;;;25.93;36.60;100086.25;4485158;32;34892;-71
2021/06/14 02:27:15;;;;;;;5.70;1.75;;;;;;;25.94;36.59;100087.91;4484321;32;34052;-71
2021/06/14 02:29:44;;;;;;;5.65;2.00;;;;;;;25.94;36.53;100081.63;4484688;32;32297;-70
2021/06/14 02:32:12;;;;;;;6.70;1.85;;;;;;;25.93;36.51;100083.53;4485124;32;34693;-69
2021/06/14 02:34:42;;;;;;;7.32;2.10;;;;;;;25.94;36.39;100082.44;4482620;32;33796;-70
2021/06/14 02:37:10;;;;;;;;;;;;;;;25.93;36.45;100079.97;4481788;32;33987;-71
2021/06/14 02:39:39;;;;;;;5.97;1.75;;;;;;;26.04;36.02;100083.75;4482994;32;34180;-70
2021/06/14 02:42:07;;;;;;;5.43;1.85;;;;;;;25.95;36.28;100083.28;4483392;32;33629;-69
2021/06/14 02:44:35;;;;;;;11.27;3.10;;;;;;;25.93;36.22;100082.69;4483868;32;34941;-70
2021/06/14 02:47:06;;;;;;;3.35;1.65;;;;;;;25.90;36.32;100078.53;4483162;32;34093;-68
2021/06/14 02:49:34;;;;;;;5.57;2.12;;;;;;;25.91;36.31;100082.91;4483887;32;33647;-68
2021/06/14 02:52:04;;;;;;;4.47;1.90;;;;;;;25.91;36.31;100079.34;4484044;32;33882;-70
2021/06/14 02:54:41;;;;;;;5.85;1.85;;;;;;;25.90;36.39;100088.63;4484656;32;34724;-68
2021/06/14 02:57:10;;;;;;;6.03;1.83;;;;;;;25.90;36.33;100092.19;4482755;32;33983;-71
2021/06/14 02:59:39;;;;;;;;;;;;;;;25.90;36.33;100085.88;4482927;32;34037;-71
2021/06/14 03:02:07;;;;;;;5.65;1.90;;;;;;;26.02;36.09;100092.22;4484705;32;34101;-71
2021/06/14 03:04:35;;;;;;;6.65;1.80;;;;;;;25.93;36.24;100083.53;4484067;32;34645;-70
2021/06/14 03:07:04;;;;;;;6.05;1.75;;;;;;;25.90;36.24;100078.53;4483636;32;34108;-71
2021/06/14 03:09:32;;;;;;;3.58;1.60;;;;;;;25.90;36.20;100074.97;4482171;32;34889;-70
2021/06/14 03:12:01;;;;;;;6.55;1.77;;;;;;;25.89;36.26;100078.78;4479483;32;34584;-70
2021/06/14 03:14:28;;;;;;;6.25;1.77;;;;;;;25.89;36.21;100084.22;4456382;32;33781;-67
2021/06/14 03:16:56;;;;;;;5.12;1.85;;;;;;;25.88;36.14;100074.34;4482154;32;34056;-70
2021/06/14 03:19:25;;;;;;;4.40;1.67;;;;;;;25.87;36.12;100075.41;4483441;32;34234;-70
2021/06/14 03:21:55;;;;;;;4.47;1.70;;;;;;;25.89;36.13;100078.78;4466902;32;34572;-71
2021/06/14 03:24:24;;;;;;;4.20;1.60;;;;;;;25.89;36.09;100086.97;4468804;32;33851;-68
2021/06/14 03:26:52;;;;;;;4.30;1.70;;;;;;;25.89;36.18;100085.06;4479015;32;34058;-70
2021/06/14 03:29:21;;;;;;;4.65;1.70;;;;;;;25.88;36.32;100082.53;4482917;32;33450;-69
2021/06/14 03:31:48;;;;;;;4.68;1.73;;;;;;;25.88;36.26;100088.88;4482424;32;33501;-70
2021/06/14 03:34:17;;;;;;;5.53;1.60;;;;;;;25.90;36.28;100091.37;4483533;32;33916;-70
2021/06/14 03:36:45;;;;;;;4.87;1.83;;;;;;;25.89;36.25;100084.22;4482746;32;34187;-70
2021/06/14 03:39:16;;;;;;;5.20;1.73;;;;;;;25.89;36.29;100090.53;4479548;32;33629;-71
2021/06/14 03:41:45;;;;;;;6.78;2.05;;;;;;;25.88;36.34;100091.59;4478942;32;33916;-70
2021/06/14 03:44:13;;;;;;;4.32;1.50;;;;;;;25.88;36.36;100091.59;4484162;32;33891;-70
2021/06/14 03:46:40;;;;;;;5.70;2.00;;;;;;;25.87;36.25;100089.91;4482929;32;33923;-70
2021/06/14 03:49:08;;;;;;;8.25;1.90;;;;;;;25.88;36.34;100094.34;4484296;32;34452;-70
2021/06/14 03:51:37;;;;;;;7.93;1.70;;;;;;;25.87;36.26;100094.56;4484356;32;33546;-69
2021/06/14 03:54:05;;;;;;;7.85;2.62;;;;;;;25.87;36.32;100095.38;4484312;32;33929;-70
2021/06/14 03:56:34;;;;;;;5.65;1.67;;;;;;;25.87;36.25;100089.09;4484215;32;34633;-70
2021/06/14 03:59:01;;;;;;;6.95;1.80;;;;;;;25.86;36.23;100093.72;4484140;32;33480;-71
2021/06/14 04:01:29;;;;;;;8.13;2.10;;;;;;;25.86;36.29;100087.44;4484386;32;33545;-71
2021/06/14 04:06:25;;;;;;;7.12;1.83;;;;;;;25.85;36.24;100088.50;4482658;32;33914;-67
2021/06/14 04:08:53;;;;;;;7.65;2.20;;;;;;;25.85;36.18;100092.06;4483155;32;34307;-67
2021/06/14 04:11:21;;;;;;;11.60;3.05;;;;;;;25.85;36.28;100092.06;4483022;32;33934;-69
2021/06/14 04:13:52;;;;;;;6.30;1.90;;;;;;;25.84;36.27;100093.16;4482713;32;33913;-68
2021/06/14 04:16:20;;;;;;;10.55;2.67;;;;;;;25.84;36.36;100093.16;4483932;32;34901;-68
2021/06/14 04:18:48;;;;;;;7.32;1.75;;;;;;;25.85;36.16;100093.97;4483800;32;33832;-68
2021/06/14 04:21:16;;;;;;;10.20;2.12;;;;;;;25.84;36.35;100098.59;4483939;32;33882;-67
2021/06/14 04:23:43;;;;;;;5.75;2.03;;;;;;;25.85;36.48;100096.69;4483374;32;35185;-71
2021/06/14 04:26:11;;;;;;;4.47;1.83;;;;;;;25.84;36.78;100106.81;4483839;32;34677;-69
2021/06/14 04:28:39;;;;;;;7.97;1.83;;;;;;;25.83;36.54;100098.81;4482792;32;33589;-63
2021/06/14 04:31:07;;;;;;;5.30;1.60;;;;;;;25.83;36.48;100104.28;4483117;32;33792;-67
2021/06/14 04:33:35;;;;;;;4.10;1.98;;;;;;;25.82;36.60;100100.72;4482369;32;33920;-66
2021/06/14 04:36:03;;;;;;;5.75;2.37;;;;;;;25.82;36.55;100095.25;4483580;32;33989;-65
2021/06/14 04:38:31;;;;;;;4.68;1.70;;;;;;;25.82;36.49;100094.44;4483396;32;33551;-70
2021/06/14 04:40:59;;;;;;;5.00;2.00;;;;;;;25.80;36.70;100100.16;4483676;32;33957;-70
2021/06/14 04:43:27;;;;;;;8.57;2.45;;;;;;;25.80;36.51;100105.59;4483946;32;34807;-70
2021/06/14 04:45:54;;;;;;;8.10;2.10;;;;;;;25.79;36.41;100106.69;4483929;32;34152;-69
2021/06/14 04:48:22;;;;;;;8.00;1.95;;;;;;;25.79;36.31;100109.41;4484004;32;33458;-71
2021/06/14 04:50:50;;;;;;;5.30;1.77;;;;;;;25.79;36.44;100105.84;4483921;32;34597;-69
2021/06/14 04:53:17;;;;;;;4.82;1.90;;;;;;;25.78;36.64;100109.62;4483767;32;33771;-71
2021/06/14 04:55:45;;;;;;;9.27;2.12;;;;;;;25.78;36.29;100105.00;4483760;32;34103;-71
2021/06/14 04:58:12;;;;;;;6.05;2.30;;;;;;;25.76;35.77;100111.78;4483445;32;33209;-70
2021/06/14 05:00:40;;;;;;;9.55;2.22;;;;;;;25.76;36.16;100107.16;4483759;32;34185;-70
2021/06/14 05:03:08;;;;;;;7.47;2.00;;;;;;;25.77;35.99;100107.97;4483594;32;34123;-71
2021/06/14 05:05:36;;;;;;;4.47;1.85;;;;;;;25.75;35.91;100107.34;4483744;32;33863;-71
2021/06/14 05:08:03;;;;;;;7.97;1.90;;;;;;;25.75;36.28;100110.91;4483595;32;34560;-68
2021/06/14 05:10:32;;;;;;;7.15;1.92;;;;;;;25.74;36.35;100114.72;4483334;32;34926;-70
2021/06/14 05:13:00;;;;;;;6.10;2.08;;;;;;;25.75;36.33;100113.66;4483921;32;34851;-70
2021/06/14 05:15:27;;;;;;;10.38;2.00;;;;;;;25.75;36.44;100108.19;4483526;32;34993;-71
2021/06/14 05:17:55;;;;;;;8.50;2.00;;;;;;;25.76;36.24;100114.50;4483291;32;33549;-71
2021/06/14 05:20:23;;;;;;;8.05;1.92;;;;;;;25.75;36.21;100110.91;4483420;32;33841;-70
2021/06/14 05:22:50;;;;;;;5.43;2.00;;;;;;;25.75;36.51;100121.03;4483423;32;33855;-69
2021/06/14 05:25:18;;;;;;;11.43;2.28;;;;;;;25.73;36.14;100112.22;4482671;32;34709;-71
2021/06/14 05:27:46;;;;;;;8.35;2.08;;;;;;;25.73;36.05;100117.66;4483013;32;34447;-68
2021/06/14 05:30:14;;;;;;;8.32;2.15;;;;;;;25.73;36.10;100126.69;4481416;32;33907;-67
2021/06/14 05:32:43;;;;;;;6.03;2.20;;;;;;;25.70;35.88;100119.81;4479907;32;33708;-67
2021/06/14 05:35:11;;;;;;;7.00;2.00;;;;;;;25.73;36.44;100120.41;4482804;31;35053;-69
2021/06/14 05:37:39;;;;;;;7.07;2.25;;;;;;;25.73;36.03;100128.59;4483273;32;33589;-68
2021/06/14 05:40:07;;;;;;;6.62;2.53;;;;;;;25.72;35.82;100126.94;4484182;32;34669;-67
2021/06/14 05:42:35;;;;;;;10.20;2.37;;;;;;;25.69;35.70;100125.50;4484706;32;33938;-68
2021/06/14 05:45:06;;;;;;;9.45;2.30;;;;;;;25.71;35.79;100126.13;4485359;32;34044;-67
2021/06/14 05:47:33;;;;;;;6.68;1.90;;;;;;;25.70;35.95;100129.94;4485135;32;33503;-67
2021/06/14 05:50:03;;;;;;;9.20;2.53;;;;;;;25.72;36.29;100127.78;4485133;32;34565;-67
2021/06/14 05:52:31;;;;;;;9.00;2.53;;;;;;;25.70;35.89;100127.19;4484830;32;33660;-68
2021/06/14 05:54:58;;;;;;;7.05;1.73;;;;;;;25.72;35.93;100125.03;4485142;32;33972;-68
2021/06/14 05:57:26;;;;;;;10.68;1.90;;;;;;;25.71;36.10;100123.38;4485049;32;34923;-68
2021/06/14 05:59:53;;;;;;;8.57;2.35;;;;;;;25.70;36.26;100129.94;4484891;32;34576;-69
2021/06/14 06:02:21;;;;;;;6.30;1.77;;;;;;;25.72;36.20;100129.69;4484475;32;33829;-68
2021/06/14 06:04:49;;;;;;;6.20;2.10;;;;;;;25.69;36.36;100131.81;4484976;32;34003;-71
2021/06/14 06:07:17;;;;;;;8.18;2.30;;;;;;;25.68;36.17;100132.03;4485036;32;33198;-70
2021/06/14 06:09:44;;;;;;;6.53;2.40;;;;;;;25.67;35.80;100133.94;4485296;32;34573;-69
2021/06/14 06:12:12;;;;;;;8.93;2.00;;;;;;;25.67;35.82;100131.22;4484844;32;34725;-71
2021/06/14 06:14:39;;;;;;;5.85;1.92;;;;;;;25.66;35.86;100135.00;4483549;32;34767;-70
2021/06/14 06:17:07;;;;;;;6.60;2.00;;;;;;;25.67;35.81;100139.41;4484843;32;33574;-68
2021/06/14 06:19:35;;;;;;;6.35;2.20;;;;;;;25.67;36.15;100139.41;4484086;32;33765;-68
2021/06/14 06:22:03;;;;;;;5.53;2.35;;;;;;;25.68;36.27;100135.59;4483455;32;33949;-68
2021/06/14 06:24:31;;;;;;;4.85;2.05;;;;;;;25.69;36.23;100139.16;4485093;32;35529;-68
2021/06/14 06:26:59;;;;;;;3.17;1.55;;;;;;;25.67;36.36;100135.84;4484924;32;33259;-69
2021/06/14 06:29:27;;;;;;;5.10;2.00;;;;;;;25.66;36.33;100132.28;4484577;32;34516;-68
2021/06/14 06:31:54;;;;;;;4.07;1.85;;;;;;;25.67;36.09;100124.91;4482540;32;33859;-69
2021/06/14 06:34:22;;;;;;;8.10;1.80;;;;;;;25.66;36.32;100126.81;4477974;32;34748;-69
2021/06/14 06:36:50;;;;;;;6.72;1.90;;;;;;;25.65;36.20;100125.16;4483617;32;33552;-67
2021/06/14 06:39:17;;;;;;;4.32;1.80;;;;;;;25.66;36.41;100126.00;4483446;32;33915;-69
2021/06/14 06:41:45;;;;;;;4.93;1.70;;;;;;;25.66;36.39;100124.09;4484583;32;33679;-68
2021/06/14 06:44:12;;;;;;;4.32;1.80;;;;;;;25.66;36.29;100118.63;4484556;32;34940;-69
2021/06/14 06:46:40;;;;;;;5.15;2.10;;;;;;;25.66;36.21;100124.09;4484840;32;33725;-68
2021/06/14 06:49:08;;;;;;;6.82;2.10;;;;;;;25.66;36.46;100121.34;4484587;32;34844;-68
2021/06/14 06:51:35;;;;;;;6.62;2.25;;;;;;;25.67;36.08;100119.44;4483783;32;33930;-69
2021/06/14 06:54:11;;;;;;;4.03;1.60;;;;;;;25.66;35.98;100120.53;4484621;32;34773;-69
2021/06/14 06:56:46;;;;;;;7.25;1.90;;;;;;;25.66;36.13;100123.25;4484658;32;33199;-69
2021/06/14 06:59:13;;;;;;;5.05;1.80;;;;;;;25.66;35.84;100126.00;4484521;32;34883;-67
2021/06/14 07:01:41;;;;;;;6.32;1.98;;;;;;;25.67;35.75;100124.91;4484352;32;34508;-67
2021/06/14 07:04:09;;;;;;;6.47;2.20;;;;;;;25.66;35.70;100124.09;4483174;32;33655;-70
2021/06/14 07:06:37;;;;;;;5.18;2.00;;;;;;;25.66;35.65;100121.34;4484430;32;33706;-69
2021/06/14 07:09:06;;;;;;;5.65;1.92;;;;;;;25.66;35.45;100118.63;4484353;32;34841;-67
2021/06/14 07:11:33;;;;;;;4.62;1.87;;;;;;;25.67;35.58;100124.91;4484114;32;33650;-69
2021/06/14 07:14:02;;;;;;;5.70;1.90;;;;;;;25.68;35.50;100134.78;4484723;32;34164;-68
2021/06/14 07:16:30;;;;;;;4.32;1.87;;;;;;;25.68;35.60;100135.59;4484274;32;34219;-67
2021/06/14 07:18:57;;;;;;;6.50;1.90;;;;;;;25.69;35.63;100133.69;4484036;32;33740;-67
2021/06/14 07:21:25;;;;;;;8.23;2.22;;;;;;;25.68;35.62;100132.88;4484440;32;34058;-67
2021/06/14 07:23:53;;;;;;;6.32;2.03;;;;;;;25.70;35.66;100141.69;4484278;32;34074;-67
2021/06/14 07:26:21;;;;;;;5.75;2.12;;;;;;;25.70;35.63;100136.22;4484147;32;33288;-68
2021/06/14 07:28:49;;;;;;;5.55;2.10;;;;;;;25.70;35.67;100135.37;4484362;32;33764;-68
2021/06/14 07:31:17;;;;;;;5.45;2.12;;;;;;;25.71;35.65;100145.25;4484292;32;33915;-68
2021/06/14 07:33:45;;;;;;;6.35;2.10;;;;;;;25.69;35.69;100134.56;4483934;32;33730;-67
2021/06/14 07:36:12;;;;;;;3.65;1.70;;;;;;;25.70;35.67;100135.37;4484238;32;33456;-68
2021/06/14 07:38:40;;;;;;;5.53;2.17;;;;;;;25.69;35.68;100141.91;4484334;32;33313;-67
2021/06/14 07:41:08;;;;;;;4.30;1.80;;;;;;;25.71;35.71;100147.97;4484093;32;33865;-68
2021/06/14 07:43:35;;;;;;;5.37;1.90;;;;;;;25.70;35.73;100146.31;4482970;32;33837;-68
2021/06/14 07:46:03;;;;;;;5.55;1.85;;;;;;;25.70;35.66;100147.16;4484288;32;33363;-68
2021/06/14 07:48:31;;;;;;;5.00;1.98;;;;;;;25.69;35.73;100144.63;4484077;32;33921;-68
2021/06/14 07:50:59;;;;;;;5.78;2.15;;;;;;;25.68;35.71;100145.69;4484295;32;34024;-67
2021/06/14 07:53:27;;;;;;;4.82;1.80;;;;;;;25.67;35.67;100150.34;4484128;32;34786;-67
2021/06/14 07:55:56;;;;;;;4.62;1.70;;;;;;;25.69;35.74;100144.63;4484054;32;33279;-68
2021/06/14 07:58:24;;;;;;;6.75;1.83;;;;;;;25.70;35.75;100143.59;4484055;32;33918;-66
2021/06/14 08:00:51;;;;;;;5.10;1.87;;;;;;;25.71;35.73;100134.31;4484285;32;33855;-68
2021/06/14 08:03:24;;;;;;;5.60;1.95;;;;;;;25.72;35.76;100138.72;4484087;32;34025;-67
2021/06/14 08:05:51;;;;;;;5.50;2.30;;;;;;;25.73;35.76;100145.00;4481021;32;33254;-68
2021/06/14 08:08:19;;;;;;;5.85;1.80;;;;;;;25.70;35.74;100136.22;4483493;32;33966;-71
2021/06/14 08:10:47;;;;;;;5.22;2.00;;;;;;;25.70;35.75;100135.37;4484049;32;33919;-69
2021/06/14 08:13:15;;;;;;;4.10;1.67;;;;;;;25.70;35.75;100138.94;4483600;32;34079;-71
2021/06/14 08:15:44;;;;;;;4.87;1.85;;;;;;;25.69;35.82;100134.56;4482765;32;33212;-70
2021/06/14 08:21:21;;;;;;;6.07;1.62;;;;;;;25.72;35.80;100135.97;4483870;32;34592;-69
2021/06/14 08:26:35;;;;;;;4.93;1.65;;;;;;;25.71;35.87;100131.59;4484045;32;34507;-70
2021/06/14 08:29:02;;;;;;;3.78;1.60;;;;;;;25.69;35.88;100137.28;4484142;32;33841;-68
2021/06/14 08:31:32;;;;;;;6.50;1.98;;;;;;;25.69;35.91;100129.09;4483685;32;33627;-70
2021/06/14 08:34:00;;;;;;;6.68;1.90;;;;;;;25.68;35.91;100129.31;4483814;31;34154;-67
2021/06/14 08:36:27;;;;;;;4.85;1.70;;;;;;;25.68;35.90;100121.94;4483960;32;34195;-70
2021/06/14 08:38:55;;;;;;;5.30;2.00;;;;;;;25.69;35.90;100114.56;4483683;32;33624;-68
2021/06/14 08:41:24;;;;;;;4.80;1.58;;;;;;;25.69;35.93;100123.62;4483671;32;33910;-69
2021/06/14 08:43:54;;;;;;;3.92;1.45;;;;;;;25.69;35.95;100111.84;4484023;32;34134;-70
2021/06/14 08:46:22;;;;;;;4.85;1.83;;;;;;;25.69;35.88;100115.44;4483848;32;34294;-69
2021/06/14 08:48:51;;;;;;;5.28;1.50;;;;;;;25.70;35.89;100119.00;4482591;32;34606;-69
2021/06/14 08:51:19;;;;;;;3.73;1.80;;;;;;;25.70;35.96;100121.72;4483910;32;34844;-70
2021/06/14 08:53:52;;;;;;;6.97;1.80;;;;;;;25.71;35.85;100123.38;4483605;32;34662;-70
2021/06/14 08:56:21;;;;;;;4.55;1.83;;;;;;;25.68;35.91;100126.56;4483890;32;33467;-70
2021/06/14 08:58:48;;;;;;;7.62;2.33;;;;;;;25.69;35.88;100129.09;4483593;32;34448;-69
2021/06/14 09:01:16;;;;;;;4.93;1.67;;;;;;;25.69;35.89;100120.91;4483477;32;33848;-70
2021/06/14 09:03:44;;;;;;;6.20;1.90;;;;;;;25.70;35.92;100125.28;4482554;32;34006;-69
2021/06/14 09:06:12;;;;;;;4.03;1.60;;;;;;;25.70;35.93;100128.03;4483509;32;34160;-70
2021/06/14 09:08:39;;;;;;;4.60;1.92;;;;;;;25.72;35.87;100121.47;4483582;32;33839;-70
2021/06/14 09:11:10;;;;;;;3.60;1.73;;;;;;;25.70;35.89;100113.53;4483349;32;33773;-70
2021/06/14 09:13:37;;;;;;;6.07;1.95;;;;;;;25.70;35.89;100113.53;4482684;32;33987;-70
2021/06/14 09:16:09;;;;;;;4.00;1.75;;;;;;;25.70;35.88;100100.69;4483402;32;34552;-71
2021/06/14 09:18:38;;;;;;;4.95;2.12;;;;;;;25.72;35.89;100100.44;4483340;32;33850;-69
2021/06/14 09:21:16;;;;;;;5.57;1.75;;;;;;;25.72;35.82;100103.19;4483005;32;34175;-70
2021/06/14 09:23:52;;;;;;;2.78;1.45;;;;;;;25.72;35.92;100105.91;4483163;32;34709;-70
2021/06/14 09:26:39;;;;;;;5.93;2.00;;;;;;;25.69;35.95;100106.38;4483169;32;34557;-69
2021/06/14 09:29:10;;;;;;;5.32;1.80;;;;;;;25.70;35.85;100110.78;4483122;32;33692;-70
2021/06/14 09:31:54;;;;;;;4.85;2.12;;;;;;;25.66;36.00;100110.41;4483235;32;34787;-71
2021/06/14 09:34:31;;;;;;;6.47;2.20;;;;;;;25.68;36.02;100101.97;4483387;32;33898;-69
2021/06/14 09:36:59;;;;;;;4.50;1.80;;;;;;;25.68;35.87;100111.00;4483062;32;33282;-70
2021/06/14 09:39:27;;;;;;;4.12;1.80;;;;;;;25.67;36.02;100108.50;4483457;32;33778;-70
2021/06/14 09:41:55;;;;;;;3.87;1.70;;;;;;;25.66;35.94;100099.50;4483024;32;33919;-69
2021/06/14 09:44:41;;;;;;;4.45;1.70;;;;;;;25.67;35.83;100086.66;4481657;32;34797;-68
2021/06/14 09:47:10;;;;;;;5.57;2.10;;;;;;;25.70;35.97;100089.75;4481549;32;34099;-68
2021/06/14 09:49:38;;;;;;;5.60;1.97;;;;;;;25.67;36.01;100079.28;4483046;32;33782;-68
2021/06/14 09:52:07;;;;;;;4.03;1.80;;;;;;;25.67;36.05;100079.28;4476906;32;33627;-68
2021/06/14 09:54:35;;;;;;;4.78;1.75;;;;;;;25.68;36.06;100080.13;4467299;32;34128;-69
2021/06/14 09:57:04;;;;;;;5.60;1.95;;;;;;;25.68;35.97;100069.19;4467601;32;33521;-67
2021/06/14 09:59:39;;;;;;;4.00;1.60;;;;;;;25.68;35.81;100078.22;4466007;32;34968;-67
2021/06/14 10:02:19;;;;;;;5.32;1.80;;;;;;;25.70;35.95;100080.72;4473667;32;34635;-68
2021/06/14 10:04:52;;;;;;;5.32;1.58;;;;;;;25.70;35.96;100075.25;4482959;32;34928;-68
2021/06/14 10:07:21;;;;;;;3.45;1.52;;;;;;;25.69;35.78;100071.69;4482757;32;33371;-67
2021/06/14 10:09:50;;;;;;;5.30;1.83;;;;;;;25.70;35.67;100075.25;4482884;32;33847;-68
2021/06/14 10:12:25;;;;;;;4.28;1.50;;;;;;;25.70;35.68;100075.25;4482685;32;34659;-68
2021/06/14 10:14:58;;;;;;;7.55;2.10;;;;;;;25.71;35.84;100071.47;4482778;32;34076;-68
2021/06/14 10:17:36;;;;;;;3.85;1.45;;;;;;;25.70;35.84;100072.53;4482553;32;34618;-67
2021/06/14 10:20:26;;;;;;;4.12;1.65;;;;;;;25.70;35.71;100072.53;4482461;32;33929;-68
2021/06/14 10:22:55;;;;;;;5.20;2.08;;;;;;;25.68;35.41;100078.22;4482646;32;33743;-68
2021/06/14 10:25:38;;;;;;;3.47;1.90;;;;;;;25.70;35.37;100061.59;4481956;32;34076;-70
2021/06/14 10:28:07;;;;;;;3.75;1.77;;;;;;;25.71;35.28;100066.00;4483666;32;33447;-68
2021/06/14 10:30:35;;;;;;;3.53;1.75;;;;;;;25.70;35.48;100054.22;4483810;32;34525;-68
2021/06/14 10:33:04;;;;;;;6.45;2.00;;;;;;;25.70;35.45;100046.03;4484671;31;33952;-69
2021/06/14 10:35:33;;;;;;;3.78;1.75;;;;;;;25.70;35.52;100050.66;4484732;32;34044;-69
2021/06/14 10:38:02;;;;;;;5.00;2.20;;;;;;;25.73;35.48;100052.06;4484727;32;33904;-68
2021/06/14 10:40:30;;;;;;;4.40;1.77;;;;;;;25.73;35.18;100035.69;4483602;32;34666;-68
2021/06/14 10:42:57;;;;;;;5.12;1.77;;;;;;;25.74;35.23;100042.81;4467502;32;33701;-68
2021/06/14 10:45:27;;;;;;;5.00;1.92;;;;;;;25.73;35.26;100028.31;4467777;32;34100;-69
2021/06/14 10:47:55;;;;;;;4.78;1.77;;;;;;;25.73;35.27;100030.22;4469024;32;34234;-67
2021/06/14 10:50:25;;;;;;;4.65;2.17;;;;;;;25.73;35.26;100025.56;4467907;32;34655;-67
2021/06/14 10:52:54;;;;;;;4.90;2.10;;;;;;;25.72;34.92;100020.34;4467927;32;34460;-68
2021/06/14 10:55:32;;;;;;;5.05;1.95;;;;;;;25.74;34.89;100010.88;4469278;32;34839;-67
2021/06/14 10:58:03;;;;;;;5.53;1.98;;;;;;;25.74;34.93;100010.00;4467682;32;33299;-68
2021/06/14 11:00:34;;;;;;;5.87;1.90;;;;;;;25.70;35.30;99996.00;4469203;32;34420;-70
2021/06/14 11:03:03;;;;;;;;;;;;;;;25.70;35.38;100015.12;4467787;32;33586;-68
2021/06/14 11:05:36;;;;;;;6.87;1.95;;;;;;;25.82;35.09;100015.16;4469042;32;34817;-69
2021/06/14 11:08:14;;;;;;;6.07;1.80;;;;;;;25.74;35.21;100020.94;4480849;32;33495;-67
2021/06/14 11:10:43;;;;;;;4.12;1.73;;;;;;;25.69;35.35;100016.19;4484615;32;33365;-68
2021/06/14 11:13:13;;;;;;;5.05;2.03;;;;;;;25.68;35.32;100026.28;4475504;32;33575;-69
2021/06/14 11:15:44;;;;;;;3.45;1.65;;;;;;;25.70;35.20;100023.34;4468829;32;34003;-69
2021/06/14 11:18:23;;;;;;;5.32;2.20;;;;;;;25.70;35.23;100032.38;4475807;32;34547;-70
2021/06/14 11:20:53;;;;;;;5.70;1.92;;;;;;;25.72;35.06;100029.38;4470047;32;33902;-69
2021/06/14 11:23:23;;;;;;;4.03;2.08;;;;;;;25.69;35.14;100030.72;4484492;32;34627;-69
2021/06/14 11:25:51;;;;;;;;;;;;;;;25.68;35.25;100031.75;4484825;32;33779;-70
2021/06/14 11:28:44;;;;;;;6.07;1.73;;;;;;;25.82;35.13;100026.09;4484218;32;33459;-69
2021/06/14 11:31:26;;;;;;;3.92;1.95;;;;;;;25.76;35.17;100032.53;4484675;32;34492;-70
2021/06/14 11:33:54;;;;;;;3.67;1.90;;;;;;;25.71;35.14;100022.25;4470668;32;33827;-70
2021/06/14 11:36:26;;;;;;;5.68;2.22;;;;;;;25.68;35.09;100023.56;4470166;32;34726;-69
2021/06/14 11:38:55;;;;;;;5.70;1.92;;;;;;;25.67;35.26;100019.16;4469919;32;33543;-70
2021/06/14 11:41:27;;;;;;;7.03;2.10;;;;;;;25.67;35.27;100024.63;4484358;32;34670;-70
2021/06/14 11:44:23;;;;;;;4.20;1.40;;;;;;;25.66;35.36;100025.69;4484165;32;34947;-69
2021/06/14 11:46:55;;;;;;;6.47;2.25;;;;;;;25.70;35.18;100023.34;4484144;32;34101;-70